Deanshanger, United Kingdom
Current Conditions -  °F | °C
As of 5:20 PM on Wednesday 28 Jan 2015 (Local Time) from EGTC Reporting Station
Few Clouds Few Clouds  
Wind Chill: -2°   Ceiling: Unl
Heat Index:   Visibility: 6mi
Dew Point:   Wind: 16mph
Humidity: 81%   Direction: 270°W
Pressure: 29.53"   Gusts: NA
Location:  52.05°N, 0.89°W
Report Text: EGTC 281720Z 27014KT 9999 FEW025 03/M00 Q1000
Loading
Personal Weather Stations






























Interactive Weather Map New forecast layout! Learn more

10-Day Weather Forecast

Advertisements
Track Severe Weather on mobile